Time;durP1;ratioP1;P1;durP2;ratioP2;P2;SDS_P1;SDS_P2;PMS_P1;PMS_P2;Temp;Humidity;BMP_temperature;BMP_pressure;BME280_temperature;BME280_humidity;BME280_pressure;Samples;Min_cycle;Max_cycle;Signal;HPM_P1;HPM_P2
2023/09/12 00:01:40;;;;;;;5.40;4.90;;;22.50;97.30;;;;;;5068016;28;20542;-84
2023/09/12 00:04:06;;;;;;;6.03;5.50;;;22.40;97.30;;;;;;5067388;28;20185;-83
2023/09/12 00:06:32;;;;;;;5.50;5.00;;;22.40;97.50;;;;;;5067624;28;20268;-80
2023/09/12 00:08:57;;;;;;;7.60;5.87;;;22.30;97.60;;;;;;5066854;28;20184;-80
2023/09/12 00:11:25;;;;;;;7.23;5.53;;;22.30;97.80;;;;;;5066120;28;20432;-85
2023/09/12 00:13:51;;;;;;;6.87;6.13;;;22.30;97.90;;;;;;5067651;28;20173;-84
2023/09/12 00:16:17;;;;;;;6.43;5.37;;;22.20;97.90;;;;;;5067747;28;20522;-84
2023/09/12 00:18:43;;;;;;;6.80;5.63;;;22.20;97.90;;;;;;5065601;28;20723;-81
2023/09/12 00:21:08;;;;;;;6.53;5.90;;;22.10;97.90;;;;;;5066383;28;20197;-84
2023/09/12 00:23:34;;;;;;;6.37;5.20;;;22.10;98.00;;;;;;5082870;28;20213;-80
2023/09/12 00:26:00;;;;;;;7.47;5.63;;;22.10;98.10;;;;;;5066167;28;20598;-84
2023/09/12 00:28:26;;;;;;;7.03;5.70;;;22.00;98.30;;;;;;5065504;28;20437;-80
2023/09/12 00:30:52;;;;;;;6.30;5.27;;;22.00;98.30;;;;;;5067304;28;20418;-80
2023/09/12 00:33:18;;;;;;;5.23;4.50;;;22.00;98.30;;;;;;5066940;28;20204;-85
2023/09/12 00:35:44;;;;;;;5.70;5.20;;;22.00;98.30;;;;;;5082830;28;20430;-80
2023/09/12 00:38:10;;;;;;;7.37;5.80;;;22.00;98.40;;;;;;5065649;28;20176;-80
2023/09/12 00:40:37;;;;;;;6.17;5.50;;;22.00;98.50;;;;;;5066345;28;20783;-80
2023/09/12 00:43:03;;;;;;;8.40;7.37;;;21.90;98.40;;;;;;5082075;28;20250;-85
2023/09/12 00:45:28;;;;;;;7.17;6.23;;;21.90;98.60;;;;;;5082531;28;20456;-80
2023/09/12 00:47:57;;;;;;;6.80;6.00;;;21.90;98.80;;;;;;5066811;28;20398;-80
2023/09/12 00:50:25;;;;;;;6.50;5.90;;;21.90;98.90;;;;;;5067028;28;20440;-84
2023/09/12 00:52:51;;;;;;;8.70;5.90;;;21.80;98.90;;;;;;5065467;28;20410;-80
2023/09/12 00:55:17;;;;;;;8.60;5.37;;;21.80;99.30;;;;;;5067177;28;20804;-84
2023/09/12 00:57:43;;;;;;;5.67;5.07;;;21.70;99.10;;;;;;5065381;28;20761;-80
2023/09/12 01:00:12;;;;;;;7.63;6.13;;;21.70;99.20;;;;;;5067014;28;20201;-84
2023/09/12 01:02:47;;;;;;;6.70;5.83;;;21.60;99.30;;;;;;5066589;28;20425;-84
2023/09/12 01:05:14;;;;;;;6.30;5.40;;;21.60;99.40;;;;;;5065361;28;20833;-80
2023/09/12 01:07:42;;;;;;;7.17;5.67;;;21.50;99.50;;;;;;5066310;28;20406;-84
2023/09/12 01:10:08;;;;;;;6.23;5.60;;;21.50;99.70;;;;;;5065083;28;21026;-81
2023/09/12 01:12:34;;;;;;;6.53;5.87;;;21.50;99.70;;;;;;5064815;28;20410;-84
2023/09/12 01:15:00;;;;;;;6.00;5.40;;;21.40;99.80;;;;;;5066542;28;21157;-84
2023/09/12 01:17:26;;;;;;;6.70;5.93;;;21.40;99.90;;;;;;5081692;28;20205;-82
2023/09/12 01:19:53;;;;;;;5.57;5.10;;;21.30;99.90;;;;;;5063811;28;20201;-84
2023/09/12 01:22:39;;;;;;;7.27;5.53;;;21.30;99.90;;;;;;5065058;28;20414;-80
2023/09/12 01:25:18;;;;;;;6.80;6.10;;;21.30;99.90;;;;;;5064660;28;20603;-80
2023/09/12 01:27:50;;;;;;;6.13;5.37;;;21.20;99.90;;;;;;5066086;28;20410;-84
2023/09/12 01:30:22;;;;;;;6.60;5.90;;;21.30;99.90;;;;;;5064951;28;20611;-84
2023/09/12 01:32:48;;;;;;;9.07;5.20;;;21.30;99.90;;;;;;5064422;28;20974;-84
2023/09/12 01:35:14;;;;;;;6.90;5.67;;;21.30;99.90;;;;;;5064911;28;20466;-80
2023/09/12 01:37:40;;;;;;;7.50;6.17;;;21.30;99.90;;;;;;5064369;28;20468;-80
2023/09/12 01:40:07;;;;;;;7.70;5.70;;;21.30;99.90;;;;;;5066302;28;20611;-83
2023/09/12 01:42:38;;;;;;;6.57;5.63;;;21.30;99.90;;;;;;5063607;28;20174;-85
2023/09/12 01:45:05;;;;;;;7.43;5.97;;;21.20;99.90;;;;;;5081207;28;20840;-84
2023/09/12 01:47:33;;;;;;;8.67;6.10;;;21.20;99.90;;;;;;5064192;28;21117;-80
2023/09/12 01:50:00;;;;;;;9.90;7.33;;;21.20;99.90;;;;;;5065392;28;20504;-84
2023/09/12 01:52:28;;;;;;;8.40;6.73;;;21.20;99.90;;;;;;5064433;28;20971;-80
2023/09/12 01:54:55;;;;;;;7.57;6.87;;;21.20;99.90;;;;;;5066114;28;20557;-85
2023/09/12 01:57:21;;;;;;;10.30;7.13;;;21.20;99.90;;;;;;5081056;28;20461;-84
2023/09/12 01:59:48;;;;;;;7.20;6.10;;;21.10;99.90;;;;;;5064480;28;20450;-85
2023/09/12 02:02:18;;;;;;;5.93;5.30;;;21.10;99.90;;;;;;5064373;28;20854;-80
2023/09/12 02:04:54;;;;;;;10.70;7.00;;;21.10;99.90;;;;;;5065292;28;20518;-80
2023/09/12 02:07:23;;;;;;;6.63;6.03;;;21.10;99.90;;;;;;5081240;28;20607;-80
2023/09/12 02:09:48;;;;;;;7.87;7.07;;;21.00;99.90;;;;;;5064373;28;20438;-84
2023/09/12 02:12:14;;;;;;;7.67;6.93;;;21.00;99.90;;;;;;5063892;28;20968;-83
2023/09/12 02:14:39;;;;;;;8.63;6.70;;;21.00;99.90;;;;;;5064305;28;20682;-80
2023/09/12 02:17:05;;;;;;;6.70;6.10;;;20.90;99.90;;;;;;5064195;28;20219;-80
2023/09/12 02:19:31;;;;;;;7.10;6.40;;;20.90;99.90;;;;;;5065986;28;20215;-80
2023/09/12 02:21:56;;;;;;;7.30;6.60;;;20.80;99.90;;;;;;5063932;28;20177;-84
2023/09/12 02:24:22;;;;;;;9.10;6.30;;;20.80;99.90;;;;;;5080889;28;20438;-80
2023/09/12 02:26:48;;;;;;;7.13;6.43;;;20.80;99.90;;;;;;5064105;28;20173;-80
2023/09/12 02:29:13;;;;;;;10.20;5.87;;;20.70;99.90;;;;;;5063848;28;20192;-80
2023/09/12 02:31:39;;;;;;;7.13;5.43;;;20.70;99.90;;;;;;5068791;28;20187;-80
2023/09/12 02:34:05;;;;;;;9.43;6.70;;;20.70;99.90;;;;;;5069365;28;20185;-84
2023/09/12 02:36:31;;;;;;;9.97;6.93;;;20.70;99.90;;;;;;5068082;28;20228;-80
2023/09/12 02:38:56;;;;;;;7.60;6.90;;;20.70;99.90;;;;;;5069437;28;20253;-83
2023/09/12 02:41:22;;;;;;;8.20;6.60;;;20.70;99.90;;;;;;5068993;28;21001;-84
2023/09/12 02:43:48;;;;;;;7.83;6.43;;;20.70;99.90;;;;;;5068767;28;20214;-80
2023/09/12 02:46:14;;;;;;;7.03;6.20;;;20.60;99.90;;;;;;5069438;28;20193;-79
2023/09/12 02:48:39;;;;;;;8.63;6.20;;;20.60;99.90;;;;;;5069090;28;20369;-80
2023/09/12 02:51:05;;;;;;;7.53;5.97;;;20.50;99.90;;;;;;5067586;28;20239;-83
2023/09/12 02:53:30;;;;;;;7.97;7.17;;;20.50;99.90;;;;;;5067565;28;20295;-84
2023/09/12 02:55:56;;;;;;;9.77;6.60;;;20.40;99.90;;;;;;5068950;28;20200;-84
2023/09/12 02:58:22;;;;;;;9.30;7.50;;;20.40;99.90;;;;;;5068958;28;20204;-80
2023/09/12 03:00:50;;;;;;;9.27;7.40;;;20.40;99.90;;;;;;5084634;28;20845;-85
2023/09/12 03:03:16;;;;;;;7.73;6.93;;;20.40;99.90;;;;;;5068761;28;20750;-80
2023/09/12 03:05:42;;;;;;;7.53;6.83;;;20.40;99.90;;;;;;5068952;28;20426;-84
2023/09/12 03:08:07;;;;;;;12.10;7.40;;;20.40;99.90;;;;;;5068831;28;20906;-84
2023/09/12 03:10:33;;;;;;;9.53;7.90;;;20.50;99.90;;;;;;5067458;28;20220;-80
2023/09/12 03:12:59;;;;;;;8.27;7.30;;;20.60;99.90;;;;;;5066793;28;20188;-80
2023/09/12 03:15:25;;;;;;;7.73;6.90;;;20.70;99.90;;;;;;5068897;28;21037;-80
2023/09/12 03:17:50;;;;;;;11.33;7.13;;;20.80;99.90;;;;;;5067123;28;20300;-84
2023/09/12 03:20:16;;;;;;;9.10;7.50;;;20.80;99.90;;;;;;5068733;28;20552;-84
2023/09/12 03:22:41;;;;;;;7.73;7.00;;;20.90;99.90;;;;;;5084306;28;20169;-80
2023/09/12 03:25:07;;;;;;;8.70;7.50;;;21.00;99.90;;;;;;5067071;28;20205;-80
2023/09/12 03:27:33;;;;;;;13.43;7.73;;;21.00;99.90;;;;;;5066810;28;20184;-80
2023/09/12 03:29:59;;;;;;;8.33;7.20;;;21.00;99.90;;;;;;5068656;28;20437;-84
2023/09/12 03:32:24;;;;;;;8.50;7.33;;;21.00;99.90;;;;;;5068267;28;20348;-84
2023/09/12 03:34:50;;;;;;;7.30;6.33;;;21.00;99.90;;;;;;5068507;28;20250;-80
2023/09/12 03:37:16;;;;;;;7.67;6.90;;;21.00;99.90;;;;;;5068333;28;20254;-82
2023/09/12 03:39:41;;;;;;;7.80;7.10;;;21.10;99.90;;;;;;5083004;28;20248;-80
2023/09/12 03:42:07;;;;;;;8.00;7.20;;;21.10;99.90;;;;;;5081849;28;20181;-82
2023/09/12 03:44:32;;;;;;;8.97;7.77;;;21.10;99.90;;;;;;5067622;28;20315;-84
2023/09/12 03:46:58;;;;;;;8.07;7.27;;;21.10;99.90;;;;;;5067482;28;20184;-80
2023/09/12 03:49:24;;;;;;;8.13;7.33;;;21.10;99.90;;;;;;5066186;28;20701;-80
2023/09/12 03:51:49;;;;;;;7.90;7.13;;;21.10;99.90;;;;;;5066807;28;20543;-84
2023/09/12 03:54:16;;;;;;;9.83;7.50;;;21.10;99.90;;;;;;5083081;28;20287;-80
2023/09/12 03:56:42;;;;;;;8.73;7.83;;;21.10;99.90;;;;;;5066922;28;20220;-84
2023/09/12 03:59:08;;;;;;;11.57;8.87;;;21.00;99.90;;;;;;5067478;28;20946;-80
2023/09/12 04:01:33;;;;;;;13.33;8.27;;;20.90;99.90;;;;;;5066803;28;20258;-79
2023/09/12 04:03:59;;;;;;;7.87;7.00;;;20.80;99.90;;;;;;5072500;28;20177;-84
2023/09/12 04:06:24;;;;;;;9.70;7.53;;;20.70;99.90;;;;;;5085127;28;20205;-84
2023/09/12 04:08:50;;;;;;;8.80;7.60;;;20.70;99.90;;;;;;5085611;28;20664;-80
2023/09/12 04:11:16;;;;;;;9.53;7.50;;;20.60;99.90;;;;;;5086382;28;20226;-84
2023/09/12 04:13:41;;;;;;;8.80;7.00;;;20.60;99.90;;;;;;5086045;28;20669;-81
2023/09/12 04:16:07;;;;;;;8.53;7.70;;;20.70;99.90;;;;;;5086454;28;20208;-80
2023/09/12 04:18:33;;;;;;;9.93;7.50;;;20.80;99.90;;;;;;5086626;28;20606;-84
2023/09/12 04:20:58;;;;;;;10.83;7.60;;;20.80;99.90;;;;;;5084284;28;20281;-84
2023/09/12 04:23:27;;;;;;;9.57;8.30;;;20.70;99.90;;;;;;5084418;28;20188;-80
2023/09/12 04:25:52;;;;;;;9.63;7.17;;;20.70;99.90;;;;;;5085936;28;20275;-85
2023/09/12 04:28:18;;;;;;;9.90;7.90;;;20.60;99.90;;;;;;5084762;28;20514;-84
2023/09/12 04:30:44;;;;;;;9.50;7.70;;;20.60;99.90;;;;;;5085069;28;20550;-84
2023/09/12 04:33:10;;;;;;;11.00;7.80;;;20.50;99.90;;;;;;5082942;28;20651;-85
2023/09/12 04:35:36;;;;;;;12.07;8.13;;;20.50;99.90;;;;;;5086678;28;20658;-84
2023/09/12 04:38:02;;;;;;;9.60;8.60;;;20.50;99.90;;;;;;5086910;28;20176;-84
2023/09/12 04:40:28;;;;;;;10.90;8.70;;;20.40;99.90;;;;;;5086655;28;20196;-84
2023/09/12 04:42:54;;;;;;;8.50;7.60;;;20.40;99.90;;;;;;5084623;28;20498;-85
2023/09/12 04:45:19;;;;;;;10.37;8.50;;;20.30;99.90;;;;;;5081759;28;20262;-80
2023/09/12 04:47:45;;;;;;;8.63;7.67;;;20.30;99.90;;;;;;5085724;28;20286;-84
2023/09/12 04:50:11;;;;;;;10.80;8.33;;;20.30;99.90;;;;;;5082991;28;20327;-79
2023/09/12 04:52:37;;;;;;;14.17;8.83;;;20.20;99.90;;;;;;5084039;28;20644;-80
2023/09/12 04:55:03;;;;;;;11.77;8.60;;;20.20;99.90;;;;;;5085100;28;20470;-85
2023/09/12 04:57:30;;;;;;;11.37;8.40;;;20.20;99.90;;;;;;5081364;28;20996;-79
2023/09/12 05:00:00;;;;;;;13.73;8.30;;;20.20;99.90;;;;;;5087567;28;20482;-85
2023/09/12 05:02:26;;;;;;;10.40;9.30;;;20.10;99.90;;;;;;5079448;28;20892;-80
2023/09/12 05:04:52;;;;;;;11.30;9.30;;;20.10;99.90;;;;;;5080805;28;20394;-80
2023/09/12 05:07:18;;;;;;;8.63;7.73;;;20.20;99.90;;;;;;5087986;28;20421;-80
2023/09/12 05:09:43;;;;;;;10.20;9.17;;;20.20;99.90;;;;;;5083170;28;20768;-84
2023/09/12 05:12:09;;;;;;;12.67;8.83;;;20.10;99.90;;;;;;5085418;28;20495;-80
2023/09/12 05:14:35;;;;;;;10.90;9.00;;;20.20;99.90;;;;;;5086367;28;20222;-80
2023/09/12 05:17:01;;;;;;;10.00;8.93;;;20.20;99.90;;;;;;5086333;28;20647;-80
2023/09/12 05:19:29;;;;;;;11.00;8.10;;;20.30;99.90;;;;;;5085118;28;20564;-80
2023/09/12 05:21:55;;;;;;;13.53;8.80;;;20.30;99.90;;;;;;5082811;28;20789;-80
2023/09/12 05:24:21;;;;;;;9.97;8.80;;;20.40;99.90;;;;;;5083691;28;20477;-80
2023/09/12 05:26:49;;;;;;;12.83;9.00;;;20.40;99.90;;;;;;5081299;28;20218;-80
2023/09/12 05:29:14;;;;;;;10.40;7.83;;;20.50;99.90;;;;;;5078848;28;20668;-84
2023/09/12 05:31:40;;;;;;;13.80;8.60;;;20.50;99.90;;;;;;5083780;28;20499;-83
2023/09/12 05:34:05;;;;;;;12.13;9.03;;;20.50;99.90;;;;;;5096282;27;20188;-84
2023/09/12 05:36:31;;;;;;;9.80;8.80;;;20.50;99.90;;;;;;5081904;28;20212;-83
2023/09/12 05:38:57;;;;;;;10.40;8.57;;;20.50;99.90;;;;;;5078813;28;20188;-83
2023/09/12 05:41:23;;;;;;;13.10;8.77;;;20.50;99.90;;;;;;5084292;28;20448;-84
2023/09/12 05:43:49;;;;;;;11.70;9.03;;;20.60;99.90;;;;;;5080341;28;20652;-80
2023/09/12 05:46:14;;;;;;;10.13;9.03;;;20.60;99.90;;;;;;5081714;28;20862;-85
2023/09/12 05:48:40;;;;;;;11.30;9.63;;;20.70;99.90;;;;;;5082930;28;20192;-84
2023/09/12 05:51:06;;;;;;;10.70;9.60;;;20.70;99.90;;;;;;5080729;28;20775;-80
2023/09/12 05:53:31;;;;;;;11.33;9.33;;;20.70;99.90;;;;;;5074407;28;20219;-83
2023/09/12 05:55:57;;;;;;;57.60;32.47;;;20.80;99.90;;;;;;5079114;28;20535;-80
2023/09/12 05:58:23;;;;;;;11.83;9.83;;;20.80;99.90;;;;;;5080955;28;20180;-83
2023/09/12 06:00:48;;;;;;;11.97;8.80;;;20.90;99.90;;;;;;5081003;28;20196;-80
2023/09/12 06:03:15;;;;;;;10.57;8.83;;;20.90;99.90;;;;;;5078211;28;20207;-80
2023/09/12 06:05:40;;;;;;;12.73;10.37;;;21.00;99.90;;;;;;5084968;28;20233;-84
2023/09/12 06:08:06;;;;;;;13.93;9.73;;;21.00;99.90;;;;;;5071190;28;20457;-80
2023/09/12 06:10:31;;;;;;;13.60;8.93;;;21.10;99.90;;;;;;5070693;28;20207;-83
2023/09/12 06:12:57;;;;;;;11.53;10.33;;;21.20;99.90;;;;;;5079445;28;20645;-84
2023/09/12 06:15:23;;;;;;;10.20;8.43;;;21.30;99.90;;;;;;5080959;28;20207;-80
2023/09/12 06:17:48;;;;;;;11.10;9.73;;;21.40;99.90;;;;;;5080258;28;20212;-80
2023/09/12 06:20:14;;;;;;;12.20;9.37;;;21.50;99.90;;;;;;5079141;28;20212;-80
2023/09/12 06:22:40;;;;;;;11.00;8.70;;;21.50;99.90;;;;;;5094210;28;20213;-82
2023/09/12 06:25:06;;;;;;;9.73;8.77;;;21.60;99.90;;;;;;5077608;28;20612;-84
2023/09/12 06:27:31;;;;;;;10.60;9.47;;;21.80;99.90;;;;;;5077780;28;20434;-83
2023/09/12 06:29:57;;;;;;;13.87;9.40;;;21.80;99.90;;;;;;5060118;28;20951;-85
2023/09/12 06:32:23;;;;;;;12.13;10.50;;;21.90;99.90;;;;;;5075144;28;20549;-80
2023/09/12 06:34:48;;;;;;;9.93;8.87;;;22.00;99.90;;;;;;5075558;28;20317;-80
2023/09/12 06:37:14;;;;;;;10.47;8.60;;;22.00;99.90;;;;;;5075651;28;20220;-80
2023/09/12 06:39:40;;;;;;;12.83;9.73;;;22.20;99.90;;;;;;5075389;28;20338;-84
2023/09/12 06:42:06;;;;;;;9.03;8.13;;;22.20;99.90;;;;;;5077312;28;20295;-83
2023/09/12 06:44:31;;;;;;;11.27;9.13;;;22.30;99.90;;;;;;5074432;28;20283;-83
2023/09/12 06:46:57;;;;;;;11.90;8.40;;;22.40;99.90;;;;;;5075530;28;20430;-82
2023/09/12 06:49:23;;;;;;;10.07;9.00;;;22.50;99.90;;;;;;5091624;28;20257;-80
2023/09/12 06:51:48;;;;;;;11.97;9.20;;;22.60;99.90;;;;;;5062158;28;20283;-80
2023/09/12 06:54:14;;;;;;;9.30;8.23;;;22.70;99.90;;;;;;5062147;28;20196;-81
2023/09/12 06:56:42;;;;;;;10.20;8.10;;;22.80;99.90;;;;;;5076697;28;20299;-84
2023/09/12 06:59:08;;;;;;;10.53;8.83;;;22.90;99.90;;;;;;5077320;28;20518;-81
2023/09/12 07:01:34;;;;;;;13.03;9.80;;;23.00;99.90;;;;;;5077358;28;20448;-81
2023/09/12 07:03:59;;;;;;;8.97;8.07;;;23.00;99.90;;;;;;5078796;28;20429;-84
2023/09/12 07:06:25;;;;;;;10.83;8.50;;;23.10;99.90;;;;;;5081300;28;20208;-84
2023/09/12 07:08:51;;;;;;;9.87;8.77;;;23.30;99.90;;;;;;5079827;28;20185;-80
2023/09/12 07:11:17;;;;;;;9.20;8.30;;;23.40;99.90;;;;;;5081364;28;20199;-84
2023/09/12 07:13:42;;;;;;;8.60;7.70;;;23.50;99.90;;;;;;5080111;28;20754;-80
2023/09/12 07:16:08;;;;;;;9.27;8.37;;;23.70;99.90;;;;;;5077859;28;20252;-84
2023/09/12 07:18:35;;;;;;;9.03;7.90;;;23.80;99.90;;;;;;5073852;28;20216;-80
2023/09/12 07:21:04;;;;;;;8.50;7.60;;;23.90;99.90;;;;;;5077648;28;20213;-81
2023/09/12 07:23:30;;;;;;;9.00;8.10;;;24.00;99.90;;;;;;5075314;28;20438;-81
2023/09/12 07:25:59;;;;;;;8.97;7.70;;;24.20;99.90;;;;;;5091818;27;20834;-81
2023/09/12 07:28:26;;;;;;;8.60;7.70;;;24.30;99.90;;;;;;5075817;28;20202;-81
2023/09/12 07:30:53;;;;;;;11.93;7.90;;;24.40;99.90;;;;;;5081946;28;20455;-81
2023/09/12 07:33:18;;;;;;;8.23;7.47;;;24.60;99.90;;;;;;5080954;28;20681;-80
2023/09/12 07:35:44;;;;;;;8.77;7.17;;;24.70;99.90;;;;;;5080229;28;20550;-80
2023/09/12 07:38:10;;;;;;;8.13;7.33;;;24.90;99.90;;;;;;5079139;28;20195;-81
2023/09/12 07:40:35;;;;;;;8.27;7.47;;;25.00;99.90;;;;;;5079626;28;20285;-84
2023/09/12 07:43:02;;;;;;;8.20;7.20;;;25.10;99.90;;;;;;5080998;28;20573;-84
2023/09/12 07:45:29;;;;;;;8.00;7.20;;;25.20;99.90;;;;;;5081278;28;20207;-80
2023/09/12 07:47:55;;;;;;;8.07;7.37;;;25.30;99.90;;;;;;5078659;28;20699;-80
2023/09/12 07:50:20;;;;;;;9.30;8.40;;;25.50;99.90;;;;;;5082435;28;20503;-84
2023/09/12 07:52:46;;;;;;;7.97;6.80;;;25.60;99.90;;;;;;5083071;28;20178;-83
2023/09/12 07:55:11;;;;;;;8.00;7.20;;;25.70;99.90;;;;;;5082919;28;20201;-81
2023/09/12 07:57:37;;;;;;;8.03;6.90;;;25.80;99.90;;;;;;5082177;28;20208;-82
2023/09/12 08:00:06;;;;;;;7.83;6.80;;;26.00;99.90;;;;;;5083023;28;20215;-84
2023/09/12 08:02:31;;;;;;;7.40;6.70;;;26.10;99.90;;;;;;5075348;28;20275;-79
2023/09/12 08:04:57;;;;;;;9.83;7.73;;;26.20;99.90;;;;;;5074326;28;20544;-81
2023/09/12 08:07:23;;;;;;;10.00;8.60;;;26.40;99.90;;;;;;5077302;28;20705;-81
2023/09/12 08:09:54;;;;;;;7.77;6.80;;;26.50;99.90;;;;;;5075696;28;20209;-82
2023/09/12 08:12:22;;;;;;;7.07;6.43;;;26.70;99.90;;;;;;5085439;28;20189;-80
2023/09/12 08:14:48;;;;;;;8.67;6.90;;;26.90;99.90;;;;;;5076725;28;20461;-81
2023/09/12 08:17:14;;;;;;;7.73;7.03;;;27.00;99.90;;;;;;5080081;28;20670;-82
2023/09/12 08:19:40;;;;;;;7.63;6.83;;;27.20;99.90;;;;;;5076721;28;20228;-84
2023/09/12 08:22:06;;;;;;;6.10;5.30;;;27.40;99.90;;;;;;5081789;28;20452;-84
2023/09/12 08:24:32;;;;;;;8.17;6.40;;;27.50;99.90;;;;;;5077586;28;20886;-83
2023/09/12 08:26:57;;;;;;;6.90;6.00;;;27.80;99.90;;;;;;5074760;28;21682;-80
2023/09/12 08:29:24;;;;;;;8.53;6.57;;;28.30;98.90;;;;;;5078433;28;20196;-81
2023/09/12 08:31:50;;;;;;;6.73;6.17;;;28.90;98.80;;;;;;5079534;28;20396;-84
2023/09/12 08:34:15;;;;;;;6.20;5.60;;;29.60;98.40;;;;;;5073479;28;20483;-84
2023/09/12 08:36:41;;;;;;;4.83;4.43;;;30.60;96.30;;;;;;5072818;28;20482;-81
2023/09/12 08:39:13;;;;;;;5.37;4.90;;;31.30;95.00;;;;;;5086358;28;20186;-81
2023/09/12 08:41:39;;;;;;;5.70;5.20;;;31.90;93.70;;;;;;5068403;28;20219;-81
2023/09/12 08:44:05;;;;;;;5.63;5.13;;;32.10;93.10;;;;;;5072378;28;20471;-84
2023/09/12 08:46:31;;;;;;;6.73;4.70;;;31.90;92.90;;;;;;5067868;28;20448;-84
2023/09/12 08:48:58;;;;;;;5.33;4.83;;;31.80;92.10;;;;;;5071394;28;20643;-81
2023/09/12 08:51:23;;;;;;;6.50;5.00;;;31.60;91.90;;;;;;5076250;28;20492;-84
2023/09/12 08:53:50;;;;;;;7.80;5.07;;;31.40;91.80;;;;;;5066553;28;20810;-81
2023/09/12 08:56:17;;;;;;;4.53;4.13;;;31.20;91.30;;;;;;5066454;28;20215;-85
2023/09/12 08:58:43;;;;;;;4.20;3.90;;;31.00;91.10;;;;;;5074415;28;20528;-85
2023/09/12 09:01:13;;;;;;;6.57;5.00;;;30.80;90.80;;;;;;5076590;28;20513;-81
2023/09/12 09:03:41;;;;;;;5.67;5.17;;;30.70;90.90;;;;;;5073814;28;20584;-81
2023/09/12 09:06:08;;;;;;;5.13;4.30;;;30.60;90.70;;;;;;5078097;28;20504;-85
2023/09/12 09:08:34;;;;;;;5.20;4.47;;;30.50;91.00;;;;;;5075990;28;20433;-81
2023/09/12 09:11:05;;;;;;;6.47;5.00;;;30.60;91.00;;;;;;5077863;28;21057;-84
2023/09/12 09:13:34;;;;;;;5.10;4.70;;;30.70;91.10;;;;;;5074820;28;21209;-81
2023/09/12 09:16:14;;;;;;;4.53;4.13;;;30.80;91.00;;;;;;5073227;28;20538;-84
2023/09/12 09:18:55;;;;;;;4.37;3.97;;;30.90;90.90;;;;;;5076226;28;20432;-81
2023/09/12 09:21:26;;;;;;;4.60;4.00;;;30.90;90.90;;;;;;5076864;28;20486;-81
2023/09/12 09:23:53;;;;;;;5.83;4.63;;;30.90;90.90;;;;;;5065564;28;20437;-81
2023/09/12 09:26:19;;;;;;;5.00;4.60;;;30.90;90.50;;;;;;5087296;28;21050;-81
2023/09/12 09:28:45;;;;;;;5.30;4.80;;;30.90;91.20;;;;;;5076942;28;20437;-84
2023/09/12 09:31:12;;;;;;;5.47;4.97;;;30.90;90.70;;;;;;5077156;28;20358;-84
2023/09/12 09:33:40;;;;;;;5.00;4.50;;;30.90;90.70;;;;;;5077112;28;20442;-85
2023/09/12 09:36:07;;;;;;;6.00;4.53;;;30.90;90.30;;;;;;5091681;27;20453;-81
2023/09/12 09:38:35;;;;;;;4.57;4.03;;;30.90;90.40;;;;;;5080837;28;20533;-85
2023/09/12 09:41:03;;;;;;;4.80;4.37;;;30.80;90.40;;;;;;5078579;28;20590;-82
2023/09/12 09:43:31;;;;;;;7.93;5.83;;;30.80;90.10;;;;;;5071919;28;20468;-85
2023/09/12 09:45:57;;;;;;;6.40;4.33;;;30.80;90.00;;;;;;5074773;28;20444;-81
2023/09/12 09:48:26;;;;;;;5.97;4.10;;;30.90;90.20;;;;;;5079225;28;20432;-84
2023/09/12 09:50:53;;;;;;;4.67;3.90;;;30.90;90.10;;;;;;5079369;28;21203;-84
2023/09/12 09:53:34;;;;;;;22.70;15.47;;;30.90;90.00;;;;;;5083987;28;20518;-84
2023/09/12 09:56:11;;;;;;;5.03;4.10;;;30.90;90.10;;;;;;5079010;28;20483;-80
2023/09/12 09:58:53;;;;;;;5.63;3.90;;;31.00;89.10;;;;;;5080074;28;20449;-80
2023/09/12 10:01:27;;;;;;;4.63;4.23;;;31.00;89.00;;;;;;5078766;28;20744;-80
2023/09/12 10:03:56;;;;;;;3.80;3.50;;;31.00;88.60;;;;;;5073230;28;20440;-81
2023/09/12 10:06:23;;;;;;;5.93;4.23;;;30.90;88.30;;;;;;5079194;28;20467;-81
2023/09/12 10:08:51;;;;;;;7.40;4.80;;;31.00;88.30;;;;;;5077224;28;20426;-85
2023/09/12 10:11:22;;;;;;;5.07;4.53;;;31.00;88.20;;;;;;5070175;28;20452;-84
2023/09/12 10:13:54;;;;;;;5.60;3.57;;;31.00;87.70;;;;;;5072563;28;20432;-81
2023/09/12 10:16:27;;;;;;;4.10;3.70;;;31.10;86.10;;;;;;5080096;28;20647;-81
2023/09/12 10:19:13;;;;;;;4.87;4.40;;;31.10;83.80;;;;;;5078636;28;20440;-80
2023/09/12 10:21:51;;;;;;;4.27;3.90;;;31.10;85.60;;;;;;5077672;28;20968;-84
2023/09/12 10:24:21;;;;;;;5.10;3.50;;;31.10;86.80;;;;;;5074189;28;20528;-84
2023/09/12 10:26:47;;;;;;;3.53;3.23;;;31.20;85.10;;;;;;5067360;28;20959;-84
2023/09/12 10:29:16;;;;;;;4.43;3.97;;;31.20;85.60;;;;;;5074816;28;20810;-84
2023/09/12 10:31:43;;;;;;;3.73;3.33;;;31.20;84.80;;;;;;5074198;28;20448;-81
2023/09/12 10:34:12;;;;;;;5.80;5.30;;;31.20;84.50;;;;;;5072745;28;21026;-84
2023/09/12 10:36:39;;;;;;;5.30;3.90;;;31.30;85.30;;;;;;5069631;28;20863;-81
2023/09/12 10:39:06;;;;;;;3.50;3.20;;;31.40;84.40;;;;;;5078127;28;20574;-81
2023/09/12 10:41:33;;;;;;;5.00;3.20;;;31.40;84.00;;;;;;5079277;28;20444;-82
2023/09/12 10:44:00;;;;;;;3.93;3.13;;;31.30;84.10;;;;;;5101400;28;20522;-84
2023/09/12 10:46:27;;;;;;;3.63;3.27;;;31.30;82.50;;;;;;5075802;28;20432;-84
2023/09/12 10:48:54;;;;;;;4.60;3.93;;;31.40;82.40;;;;;;5078431;28;20429;-85
2023/09/12 10:51:20;;;;;;;4.93;2.90;;;31.40;82.60;;;;;;5078965;28;20545;-81
2023/09/12 10:53:49;;;;;;;3.80;3.50;;;31.50;82.00;;;;;;5074149;28;20584;-81
2023/09/12 10:56:20;;;;;;;4.93;3.43;;;31.50;81.50;;;;;;5075524;28;20465;-84
2023/09/12 10:59:04;;;;;;;6.60;3.53;;;31.60;78.80;;;;;;5077528;28;20518;-81
2023/09/12 11:01:32;;;;;;;3.23;2.93;;;31.60;78.70;;;;;;5079152;28;20473;-81
2023/09/12 11:03:58;;;;;;;4.87;3.37;;;31.70;77.40;;;;;;5078140;28;20440;-84
2023/09/12 11:06:31;;;;;;;4.40;3.40;;;31.60;77.70;;;;;;5070383;28;20459;-84
2023/09/12 11:09:32;;;;;;;4.40;3.30;;;31.70;77.40;;;;;;5074405;28;20429;-84
2023/09/12 11:12:05;;;;;;;3.20;2.87;;;31.70;77.20;;;;;;5051390;28;20429;-81
2023/09/12 11:14:32;;;;;;;3.73;3.20;;;31.70;78.40;;;;;;5071294;28;20732;-81
2023/09/12 11:17:07;;;;;;;4.80;3.27;;;31.80;78.10;;;;;;5088555;28;20718;-83
2023/09/12 11:19:49;;;;;;;4.13;2.67;;;31.90;76.50;;;;;;5079130;28;20950;-81
2023/09/12 11:22:34;;;;;;;3.40;2.53;;;31.90;76.00;;;;;;5075580;28;20659;-85
2023/09/12 11:25:05;;;;;;;3.93;3.00;;;32.00;75.80;;;;;;5065177;28;20462;-82
2023/09/12 11:27:33;;;;;;;5.50;4.40;;;32.00;75.50;;;;;;5088802;28;20629;-85
2023/09/12 11:30:05;;;;;;;5.20;3.10;;;32.00;75.80;;;;;;5078337;28;20551;-85
2023/09/12 11:32:34;;;;;;;5.53;2.67;;;32.00;75.70;;;;;;5075797;28;21427;-81
2023/09/12 11:35:08;;;;;;;3.33;2.90;;;32.00;73.80;;;;;;5069975;28;20468;-80
2023/09/12 11:37:36;;;;;;;3.07;2.50;;;31.90;73.60;;;;;;5077189;28;20471;-81
2023/09/12 11:40:16;;;;;;;4.00;3.00;;;31.90;73.80;;;;;;5075210;28;20447;-84
2023/09/12 11:42:42;;;;;;;3.27;2.83;;;31.90;74.50;;;;;;5072120;28;20447;-85
2023/09/12 11:45:10;;;;;;;4.33;2.63;;;31.90;77.40;;;;;;5075717;28;20461;-84
2023/09/12 11:47:41;;;;;;;3.37;2.87;;;31.90;75.00;;;;;;5068742;28;20433;-84
2023/09/12 11:50:07;;;;;;;4.43;2.87;;;32.00;75.20;;;;;;5078249;28;21059;-81
2023/09/12 11:52:39;;;;;;;4.17;2.97;;;32.00;75.10;;;;;;5077922;28;20528;-84
2023/09/12 11:55:05;;;;;;;2.80;2.60;;;32.10;75.30;;;;;;5075031;28;20501;-81
2023/09/12 11:57:32;;;;;;;4.03;2.80;;;32.10;75.50;;;;;;5069911;28;21052;-85
2023/09/12 11:59:57;;;;;;;3.20;2.90;;;32.10;75.70;;;;;;5072111;28;20456;-80
2023/09/12 12:02:23;;;;;;;3.87;3.47;;;32.10;75.10;;;;;;5073207;28;20776;-83
2023/09/12 12:04:50;;;;;;;2.90;2.60;;;32.20;75.10;;;;;;5075183;28;20490;-81
2023/09/12 12:07:16;;;;;;;3.73;2.73;;;32.20;73.30;;;;;;5074988;28;20507;-81
2023/09/12 12:09:42;;;;;;;3.10;2.43;;;32.20;73.10;;;;;;5073612;28;20808;-84
2023/09/12 12:12:12;;;;;;;3.87;2.70;;;32.30;73.50;;;;;;5075222;28;20594;-83
2023/09/12 12:14:39;;;;;;;3.63;2.50;;;32.30;73.20;;;;;;5075896;28;20548;-81
2023/09/12 12:17:09;;;;;;;3.47;2.90;;;32.30;72.30;;;;;;5071143;28;20993;-84
2023/09/12 12:19:36;;;;;;;3.93;2.93;;;32.30;72.10;;;;;;5072073;28;20461;-85
2023/09/12 12:22:05;;;;;;;2.97;2.67;;;32.30;72.70;;;;;;5075506;28;20417;-81
2023/09/12 12:24:45;;;;;;;3.67;3.27;;;32.30;71.90;;;;;;5078619;28;20483;-81
2023/09/12 12:27:11;;;;;;;5.37;2.93;;;32.30;73.50;;;;;;5077117;28;20409;-83
2023/09/12 12:29:39;;;;;;;4.83;3.10;;;32.30;73.20;;;;;;5068467;28;21037;-82
2023/09/12 12:32:05;;;;;;;3.07;2.80;;;32.40;73.30;;;;;;5076838;28;20752;-86
2023/09/12 12:34:32;;;;;;;2.87;2.67;;;32.40;73.30;;;;;;5077354;28;20457;-84
2023/09/12 12:36:57;;;;;;;3.50;3.20;;;32.40;72.90;;;;;;5073793;28;20461;-84
2023/09/12 12:39:23;;;;;;;2.80;2.50;;;32.50;72.80;;;;;;5078193;28;20444;-81
2023/09/12 12:41:52;;;;;;;4.30;2.70;;;32.50;72.60;;;;;;5079073;28;20191;-85
2023/09/12 12:44:18;;;;;;;3.93;2.93;;;32.50;72.70;;;;;;5080712;28;20443;-81
2023/09/12 12:46:52;;;;;;;5.30;3.10;;;32.50;71.20;;;;;;5075364;28;20941;-84